sensor_id;sensor_type;location;lat;lon;timestamp;P1;durP1;ratioP1;P2;durP2;ratioP2
66012;SDS011;52783;50.502;8.190;2023-03-01T00:01:06;11.13;;;7.35;;
66012;SDS011;52783;50.502;8.190;2023-03-01T00:03:32;11.15;;;6.63;;
66012;SDS011;52783;50.502;8.190;2023-03-01T00:05:59;12.50;;;7.15;;
66012;SDS011;52783;50.502;8.190;2023-03-01T00:08:25;13.18;;;6.72;;
66012;SDS011;52783;50.502;8.190;2023-03-01T00:11:01;15.57;;;7.63;;
66012;SDS011;52783;50.502;8.190;2023-03-01T00:13:27;11.60;;;7.32;;
66012;SDS011;52783;50.502;8.190;2023-03-01T00:15:52;13.82;;;6.95;;
66012;SDS011;52783;50.502;8.190;2023-03-01T00:18:18;13.05;;;7.55;;
66012;SDS011;52783;50.502;8.190;2023-03-01T00:20:49;13.63;;;7.65;;
66012;SDS011;52783;50.502;8.190;2023-03-01T00:25:42;12.68;;;6.55;;
66012;SDS011;52783;50.502;8.190;2023-03-01T00:28:07;10.82;;;6.75;;
66012;SDS011;52783;50.502;8.190;2023-03-01T00:30:33;8.98;;;6.70;;
66012;SDS011;52783;50.502;8.190;2023-03-01T00:32:58;12.32;;;7.03;;
66012;SDS011;52783;50.502;8.190;2023-03-01T00:35:24;12.38;;;7.40;;
66012;SDS011;52783;50.502;8.190;2023-03-01T00:37:50;15.88;;;8.15;;
66012;SDS011;52783;50.502;8.190;2023-03-01T00:40:22;5.82;;;3.92;;
66012;SDS011;52783;50.502;8.190;2023-03-01T00:42:48;14.10;;;7.13;;
66012;SDS011;52783;50.502;8.190;2023-03-01T00:45:14;14.70;;;6.60;;
66012;SDS011;52783;50.502;8.190;2023-03-01T00:47:40;11.50;;;6.20;;
66012;SDS011;52783;50.502;8.190;2023-03-01T00:50:05;11.18;;;6.20;;
66012;SDS011;52783;50.502;8.190;2023-03-01T00:52:31;10.48;;;6.30;;
66012;SDS011;52783;50.502;8.190;2023-03-01T00:54:57;14.80;;;7.03;;
66012;SDS011;52783;50.502;8.190;2023-03-01T00:57:23;12.00;;;6.22;;
66012;SDS011;52783;50.502;8.190;2023-03-01T00:59:48;12.10;;;5.32;;
66012;SDS011;52783;50.502;8.190;2023-03-01T01:02:14;14.75;;;7.75;;
66012;SDS011;52783;50.502;8.190;2023-03-01T01:04:40;11.80;;;7.55;;
66012;SDS011;52783;50.502;8.190;2023-03-01T01:07:05;12.70;;;6.53;;
66012;SDS011;52783;50.502;8.190;2023-03-01T01:09:31;13.40;;;6.80;;
66012;SDS011;52783;50.502;8.190;2023-03-01T01:11:56;13.98;;;7.57;;
66012;SDS011;52783;50.502;8.190;2023-03-01T01:14:22;12.18;;;7.68;;
66012;SDS011;52783;50.502;8.190;2023-03-01T01:16:47;12.57;;;7.60;;
66012;SDS011;52783;50.502;8.190;2023-03-01T01:19:13;12.45;;;7.70;;
66012;SDS011;52783;50.502;8.190;2023-03-01T01:21:39;11.55;;;7.00;;
66012;SDS011;52783;50.502;8.190;2023-03-01T01:24:07;9.80;;;6.22;;
66012;SDS011;52783;50.502;8.190;2023-03-01T01:26:33;13.20;;;5.80;;
66012;SDS011;52783;50.502;8.190;2023-03-01T01:28:59;17.83;;;9.05;;
66012;SDS011;52783;50.502;8.190;2023-03-01T01:31:27;18.10;;;7.72;;
66012;SDS011;52783;50.502;8.190;2023-03-01T01:33:53;11.52;;;7.45;;
66012;SDS011;52783;50.502;8.190;2023-03-01T01:36:19;15.45;;;7.90;;
66012;SDS011;52783;50.502;8.190;2023-03-01T01:38:45;10.88;;;7.35;;
66012;SDS011;52783;50.502;8.190;2023-03-01T01:41:11;13.32;;;7.80;;
66012;SDS011;52783;50.502;8.190;2023-03-01T01:43:39;9.98;;;7.10;;
66012;SDS011;52783;50.502;8.190;2023-03-01T01:46:12;18.02;;;8.20;;
66012;SDS011;52783;50.502;8.190;2023-03-01T01:48:52;12.35;;;8.18;;
66012;SDS011;52783;50.502;8.190;2023-03-01T01:51:23;16.48;;;8.88;;
66012;SDS011;52783;50.502;8.190;2023-03-01T01:54:03;14.23;;;8.10;;
66012;SDS011;52783;50.502;8.190;2023-03-01T01:56:33;14.82;;;8.05;;
66012;SDS011;52783;50.502;8.190;2023-03-01T01:58:59;18.10;;;8.80;;
66012;SDS011;52783;50.502;8.190;2023-03-01T02:01:26;14.90;;;8.10;;
66012;SDS011;52783;50.502;8.190;2023-03-01T02:03:51;10.93;;;7.03;;
66012;SDS011;52783;50.502;8.190;2023-03-01T02:08:59;12.55;;;7.55;;
66012;SDS011;52783;50.502;8.190;2023-03-01T02:11:30;14.57;;;7.78;;
66012;SDS011;52783;50.502;8.190;2023-03-01T02:13:56;12.90;;;7.63;;
66012;SDS011;52783;50.502;8.190;2023-03-01T02:16:22;17.30;;;9.30;;
66012;SDS011;52783;50.502;8.190;2023-03-01T02:18:47;10.88;;;6.35;;
66012;SDS011;52783;50.502;8.190;2023-03-01T02:23:49;16.05;;;9.00;;
66012;SDS011;52783;50.502;8.190;2023-03-01T02:26:35;18.67;;;8.57;;
66012;SDS011;52783;50.502;8.190;2023-03-01T02:29:07;16.38;;;8.20;;
66012;SDS011;52783;50.502;8.190;2023-03-01T02:31:33;15.05;;;7.82;;
66012;SDS011;52783;50.502;8.190;2023-03-01T02:34:14;13.32;;;8.27;;
66012;SDS011;52783;50.502;8.190;2023-03-01T02:36:49;16.75;;;8.40;;
66012;SDS011;52783;50.502;8.190;2023-03-01T02:39:33;17.75;;;8.88;;
66012;SDS011;52783;50.502;8.190;2023-03-01T02:42:07;16.05;;;8.85;;
66012;SDS011;52783;50.502;8.190;2023-03-01T02:44:39;14.25;;;8.40;;
66012;SDS011;52783;50.502;8.190;2023-03-01T02:47:04;19.05;;;8.30;;
66012;SDS011;52783;50.502;8.190;2023-03-01T02:49:31;18.45;;;9.30;;
66012;SDS011;52783;50.502;8.190;2023-03-01T02:54:53;14.85;;;8.38;;
66012;SDS011;52783;50.502;8.190;2023-03-01T02:57:30;17.20;;;8.35;;
66012;SDS011;52783;50.502;8.190;2023-03-01T02:59:59;12.65;;;7.25;;
66012;SDS011;52783;50.502;8.190;2023-03-01T03:02:32;16.27;;;9.25;;
66012;SDS011;52783;50.502;8.190;2023-03-01T03:05:03;18.13;;;9.98;;
66012;SDS011;52783;50.502;8.190;2023-03-01T03:07:31;20.60;;;10.02;;
66012;SDS011;52783;50.502;8.190;2023-03-01T03:09:58;14.73;;;8.90;;
66012;SDS011;52783;50.502;8.190;2023-03-01T03:12:24;15.63;;;8.88;;
66012;SDS011;52783;50.502;8.190;2023-03-01T03:14:49;15.63;;;9.10;;
66012;SDS011;52783;50.502;8.190;2023-03-01T03:17:15;13.57;;;8.82;;
66012;SDS011;52783;50.502;8.190;2023-03-01T03:19:40;17.98;;;8.95;;
66012;SDS011;52783;50.502;8.190;2023-03-01T03:22:06;18.55;;;9.13;;
66012;SDS011;52783;50.502;8.190;2023-03-01T03:24:33;15.80;;;9.65;;
66012;SDS011;52783;50.502;8.190;2023-03-01T03:27:03;12.50;;;8.05;;
66012;SDS011;52783;50.502;8.190;2023-03-01T03:29:29;15.27;;;9.02;;
66012;SDS011;52783;50.502;8.190;2023-03-01T03:31:54;13.93;;;8.88;;
66012;SDS011;52783;50.502;8.190;2023-03-01T03:34:20;14.10;;;8.15;;
66012;SDS011;52783;50.502;8.190;2023-03-01T03:36:45;16.15;;;9.55;;
66012;SDS011;52783;50.502;8.190;2023-03-01T03:39:11;13.40;;;5.80;;
66012;SDS011;52783;50.502;8.190;2023-03-01T03:41:36;13.48;;;7.85;;
66012;SDS011;52783;50.502;8.190;2023-03-01T03:44:02;16.02;;;8.23;;
66012;SDS011;52783;50.502;8.190;2023-03-01T03:46:27;16.38;;;8.07;;
66012;SDS011;52783;50.502;8.190;2023-03-01T03:48:53;18.35;;;7.90;;
66012;SDS011;52783;50.502;8.190;2023-03-01T03:51:18;17.50;;;8.48;;
66012;SDS011;52783;50.502;8.190;2023-03-01T03:53:45;18.85;;;9.45;;
66012;SDS011;52783;50.502;8.190;2023-03-01T03:56:11;13.75;;;9.43;;
66012;SDS011;52783;50.502;8.190;2023-03-01T03:58:37;14.77;;;8.77;;
66012;SDS011;52783;50.502;8.190;2023-03-01T04:01:03;15.27;;;8.93;;
66012;SDS011;52783;50.502;8.190;2023-03-01T04:03:29;14.63;;;8.35;;
66012;SDS011;52783;50.502;8.190;2023-03-01T04:05:57;11.73;;;7.32;;
66012;SDS011;52783;50.502;8.190;2023-03-01T04:08:23;17.63;;;8.63;;
66012;SDS011;52783;50.502;8.190;2023-03-01T04:10:50;17.90;;;9.93;;
66012;SDS011;52783;50.502;8.190;2023-03-01T04:13:18;14.00;;;8.43;;
66012;SDS011;52783;50.502;8.190;2023-03-01T04:15:49;15.57;;;8.65;;
66012;SDS011;52783;50.502;8.190;2023-03-01T04:18:16;15.63;;;9.32;;
66012;SDS011;52783;50.502;8.190;2023-03-01T04:20:43;11.82;;;7.22;;
66012;SDS011;52783;50.502;8.190;2023-03-01T04:23:11;19.05;;;9.25;;
66012;SDS011;52783;50.502;8.190;2023-03-01T04:28:14;13.90;;;8.75;;
66012;SDS011;52783;50.502;8.190;2023-03-01T04:30:40;17.05;;;8.60;;
66012;SDS011;52783;50.502;8.190;2023-03-01T04:33:06;15.65;;;8.27;;
66012;SDS011;52783;50.502;8.190;2023-03-01T04:35:34;15.93;;;9.20;;
66012;SDS011;52783;50.502;8.190;2023-03-01T04:38:01;16.63;;;8.63;;
66012;SDS011;52783;50.502;8.190;2023-03-01T04:40:27;20.85;;;8.43;;
66012;SDS011;52783;50.502;8.190;2023-03-01T04:42:53;15.45;;;9.68;;
66012;SDS011;52783;50.502;8.190;2023-03-01T04:45:19;14.50;;;7.90;;
66012;SDS011;52783;50.502;8.190;2023-03-01T04:47:45;19.25;;;10.18;;
66012;SDS011;52783;50.502;8.190;2023-03-01T04:50:14;17.88;;;10.27;;
66012;SDS011;52783;50.502;8.190;2023-03-01T04:52:42;18.13;;;10.20;;
66012;SDS011;52783;50.502;8.190;2023-03-01T04:55:08;17.17;;;9.35;;
66012;SDS011;52783;50.502;8.190;2023-03-01T04:57:34;18.05;;;8.35;;
66012;SDS011;52783;50.502;8.190;2023-03-01T05:00:00;16.00;;;8.82;;
66012;SDS011;52783;50.502;8.190;2023-03-01T05:02:26;19.27;;;8.30;;
66012;SDS011;52783;50.502;8.190;2023-03-01T05:04:51;15.05;;;9.40;;
66012;SDS011;52783;50.502;8.190;2023-03-01T05:07:17;12.48;;;7.88;;
66012;SDS011;52783;50.502;8.190;2023-03-01T05:09:46;18.35;;;10.18;;
66012;SDS011;52783;50.502;8.190;2023-03-01T05:12:11;14.30;;;8.05;;
66012;SDS011;52783;50.502;8.190;2023-03-01T05:14:37;20.13;;;9.85;;
66012;SDS011;52783;50.502;8.190;2023-03-01T05:17:03;14.57;;;8.65;;
66012;SDS011;52783;50.502;8.190;2023-03-01T05:19:30;15.05;;;8.80;;
66012;SDS011;52783;50.502;8.190;2023-03-01T05:21:56;17.65;;;9.27;;
66012;SDS011;52783;50.502;8.190;2023-03-01T05:24:29;18.08;;;10.65;;
66012;SDS011;52783;50.502;8.190;2023-03-01T05:26:56;17.48;;;10.02;;
66012;SDS011;52783;50.502;8.190;2023-03-01T05:29:23;17.35;;;9.75;;
66012;SDS011;52783;50.502;8.190;2023-03-01T05:31:53;13.50;;;8.80;;
66012;SDS011;52783;50.502;8.190;2023-03-01T05:34:26;20.35;;;8.65;;
66012;SDS011;52783;50.502;8.190;2023-03-01T05:36:54;20.02;;;10.27;;
66012;SDS011;52783;50.502;8.190;2023-03-01T05:39:23;15.70;;;8.93;;
66012;SDS011;52783;50.502;8.190;2023-03-01T05:41:58;13.07;;;8.10;;
66012;SDS011;52783;50.502;8.190;2023-03-01T05:44:25;10.60;;;7.40;;
66012;SDS011;52783;50.502;8.190;2023-03-01T05:46:51;12.68;;;7.93;;
66012;SDS011;52783;50.502;8.190;2023-03-01T05:49:17;17.33;;;9.57;;
66012;SDS011;52783;50.502;8.190;2023-03-01T05:51:46;19.15;;;10.32;;
66012;SDS011;52783;50.502;8.190;2023-03-01T05:54:13;14.55;;;9.00;;
66012;SDS011;52783;50.502;8.190;2023-03-01T05:56:39;16.88;;;8.73;;
66012;SDS011;52783;50.502;8.190;2023-03-01T05:59:04;18.38;;;10.27;;
66012;SDS011;52783;50.502;8.190;2023-03-01T06:01:30;17.75;;;9.57;;
66012;SDS011;52783;50.502;8.190;2023-03-01T06:03:57;19.75;;;9.93;;
66012;SDS011;52783;50.502;8.190;2023-03-01T06:06:23;19.20;;;10.05;;
66012;SDS011;52783;50.502;8.190;2023-03-01T06:08:49;14.85;;;8.93;;
66012;SDS011;52783;50.502;8.190;2023-03-01T06:11:16;16.13;;;9.07;;
66012;SDS011;52783;50.502;8.190;2023-03-01T06:13:42;24.58;;;9.63;;
66012;SDS011;52783;50.502;8.190;2023-03-01T06:16:08;14.48;;;8.32;;
66012;SDS011;52783;50.502;8.190;2023-03-01T06:18:35;23.65;;;10.90;;
66012;SDS011;52783;50.502;8.190;2023-03-01T06:21:01;12.73;;;8.35;;
66012;SDS011;52783;50.502;8.190;2023-03-01T06:23:27;14.98;;;8.65;;
66012;SDS011;52783;50.502;8.190;2023-03-01T06:25:53;16.17;;;8.88;;
66012;SDS011;52783;50.502;8.190;2023-03-01T06:28:18;20.40;;;9.90;;
66012;SDS011;52783;50.502;8.190;2023-03-01T06:30:44;18.17;;;11.00;;
66012;SDS011;52783;50.502;8.190;2023-03-01T06:33:09;15.95;;;9.75;;
66012;SDS011;52783;50.502;8.190;2023-03-01T06:35:35;18.65;;;9.85;;
66012;SDS011;52783;50.502;8.190;2023-03-01T06:38:01;20.40;;;9.63;;
66012;SDS011;52783;50.502;8.190;2023-03-01T06:40:28;20.60;;;9.63;;
66012;SDS011;52783;50.502;8.190;2023-03-01T06:42:55;20.52;;;9.30;;
66012;SDS011;52783;50.502;8.190;2023-03-01T06:45:21;17.30;;;10.07;;
66012;SDS011;52783;50.502;8.190;2023-03-01T06:47:47;16.60;;;9.43;;
66012;SDS011;52783;50.502;8.190;2023-03-01T06:50:13;13.38;;;8.23;;
66012;SDS011;52783;50.502;8.190;2023-03-01T06:52:40;20.25;;;11.48;;
66012;SDS011;52783;50.502;8.190;2023-03-01T06:55:06;18.45;;;10.00;;
66012;SDS011;52783;50.502;8.190;2023-03-01T06:57:31;17.17;;;10.23;;
66012;SDS011;52783;50.502;8.190;2023-03-01T06:59:57;17.92;;;10.10;;
66012;SDS011;52783;50.502;8.190;2023-03-01T07:02:23;19.38;;;10.55;;
66012;SDS011;52783;50.502;8.190;2023-03-01T07:04:52;21.23;;;9.73;;
66012;SDS011;52783;50.502;8.190;2023-03-01T07:07:17;20.80;;;9.85;;
66012;SDS011;52783;50.502;8.190;2023-03-01T07:09:44;21.13;;;10.10;;
66012;SDS011;52783;50.502;8.190;2023-03-01T07:12:10;16.33;;;9.55;;
66012;SDS011;52783;50.502;8.190;2023-03-01T07:14:35;16.23;;;8.98;;
66012;SDS011;52783;50.502;8.190;2023-03-01T07:17:01;23.55;;;10.13;;
66012;SDS011;52783;50.502;8.190;2023-03-01T07:19:27;14.65;;;8.30;;
66012;SDS011;52783;50.502;8.190;2023-03-01T07:21:52;18.33;;;9.43;;
66012;SDS011;52783;50.502;8.190;2023-03-01T07:24:18;18.05;;;10.48;;
66012;SDS011;52783;50.502;8.190;2023-03-01T07:26:47;25.25;;;9.38;;
66012;SDS011;52783;50.502;8.190;2023-03-01T07:29:14;18.52;;;9.63;;
66012;SDS011;52783;50.502;8.190;2023-03-01T07:31:39;15.82;;;9.10;;
66012;SDS011;52783;50.502;8.190;2023-03-01T07:34:05;17.58;;;7.82;;
66012;SDS011;52783;50.502;8.190;2023-03-01T07:36:30;18.55;;;11.18;;
66012;SDS011;52783;50.502;8.190;2023-03-01T07:38:56;16.45;;;9.13;;
66012;SDS011;52783;50.502;8.190;2023-03-01T07:41:22;17.35;;;9.93;;
66012;SDS011;52783;50.502;8.190;2023-03-01T07:43:48;17.42;;;9.95;;
66012;SDS011;52783;50.502;8.190;2023-03-01T07:46:13;18.52;;;8.55;;
66012;SDS011;52783;50.502;8.190;2023-03-01T07:48:39;14.88;;;8.65;;
66012;SDS011;52783;50.502;8.190;2023-03-01T07:51:05;16.08;;;9.27;;
66012;SDS011;52783;50.502;8.190;2023-03-01T07:53:32;18.58;;;10.80;;
66012;SDS011;52783;50.502;8.190;2023-03-01T07:56:11;12.00;;;7.93;;
66012;SDS011;52783;50.502;8.190;2023-03-01T07:58:39;14.13;;;8.55;;
66012;SDS011;52783;50.502;8.190;2023-03-01T08:01:07;17.58;;;9.88;;
66012;SDS011;52783;50.502;8.190;2023-03-01T08:03:34;17.77;;;9.07;;
66012;SDS011;52783;50.502;8.190;2023-03-01T08:06:00;18.73;;;10.55;;
66012;SDS011;52783;50.502;8.190;2023-03-01T08:08:27;17.98;;;9.05;;
66012;SDS011;52783;50.502;8.190;2023-03-01T08:10:52;13.48;;;8.98;;
66012;SDS011;52783;50.502;8.190;2023-03-01T08:13:20;18.70;;;10.23;;
66012;SDS011;52783;50.502;8.190;2023-03-01T08:15:47;19.92;;;8.75;;
66012;SDS011;52783;50.502;8.190;2023-03-01T08:18:13;13.05;;;7.90;;
66012;SDS011;52783;50.502;8.190;2023-03-01T08:20:39;16.70;;;9.10;;
66012;SDS011;52783;50.502;8.190;2023-03-01T08:23:05;18.60;;;9.77;;
66012;SDS011;52783;50.502;8.190;2023-03-01T08:25:30;19.75;;;10.23;;
66012;SDS011;52783;50.502;8.190;2023-03-01T08:27:56;10.77;;;7.32;;
66012;SDS011;52783;50.502;8.190;2023-03-01T08:30:21;12.90;;;8.13;;
66012;SDS011;52783;50.502;8.190;2023-03-01T08:32:48;11.93;;;7.80;;
66012;SDS011;52783;50.502;8.190;2023-03-01T08:35:14;16.35;;;9.88;;
66012;SDS011;52783;50.502;8.190;2023-03-01T08:37:40;25.10;;;7.90;;
66012;SDS011;52783;50.502;8.190;2023-03-01T08:40:06;15.98;;;9.52;;
66012;SDS011;52783;50.502;8.190;2023-03-01T08:42:34;14.40;;;9.15;;
66012;SDS011;52783;50.502;8.190;2023-03-01T08:45:00;8.73;;;5.90;;
66012;SDS011;52783;50.502;8.190;2023-03-01T08:47:26;14.85;;;8.80;;
66012;SDS011;52783;50.502;8.190;2023-03-01T08:49:51;12.88;;;6.53;;
66012;SDS011;52783;50.502;8.190;2023-03-01T08:52:17;16.98;;;8.75;;
66012;SDS011;52783;50.502;8.190;2023-03-01T08:54:44;16.55;;;8.23;;
66012;SDS011;52783;50.502;8.190;2023-03-01T08:57:09;15.95;;;9.35;;
66012;SDS011;52783;50.502;8.190;2023-03-01T08:59:35;16.00;;;8.57;;
66012;SDS011;52783;50.502;8.190;2023-03-01T09:02:02;12.07;;;6.70;;
66012;SDS011;52783;50.502;8.190;2023-03-01T09:04:29;16.25;;;8.57;;
66012;SDS011;52783;50.502;8.190;2023-03-01T09:06:54;17.20;;;7.30;;
66012;SDS011;52783;50.502;8.190;2023-03-01T09:09:20;12.32;;;7.85;;
66012;SDS011;52783;50.502;8.190;2023-03-01T09:11:46;17.10;;;7.68;;
66012;SDS011;52783;50.502;8.190;2023-03-01T09:14:14;13.00;;;7.25;;
66012;SDS011;52783;50.502;8.190;2023-03-01T09:16:40;10.50;;;6.30;;
66012;SDS011;52783;50.502;8.190;2023-03-01T09:19:05;14.32;;;7.80;;
66012;SDS011;52783;50.502;8.190;2023-03-01T09:21:31;19.45;;;8.18;;
66012;SDS011;52783;50.502;8.190;2023-03-01T09:23:57;11.50;;;6.68;;
66012;SDS011;52783;50.502;8.190;2023-03-01T09:26:23;16.90;;;8.90;;
66012;SDS011;52783;50.502;8.190;2023-03-01T09:28:50;16.58;;;8.57;;
66012;SDS011;52783;50.502;8.190;2023-03-01T09:31:18;12.75;;;7.55;;
66012;SDS011;52783;50.502;8.190;2023-03-01T09:33:48;16.38;;;9.27;;
66012;SDS011;52783;50.502;8.190;2023-03-01T09:36:18;11.98;;;6.90;;
66012;SDS011;52783;50.502;8.190;2023-03-01T09:38:46;13.50;;;8.73;;
66012;SDS011;52783;50.502;8.190;2023-03-01T09:44:10;12.45;;;6.15;;
66012;SDS011;52783;50.502;8.190;2023-03-01T09:46:48;15.20;;;7.30;;
66012;SDS011;52783;50.502;8.190;2023-03-01T09:49:15;19.55;;;8.07;;
66012;SDS011;52783;50.502;8.190;2023-03-01T09:51:47;10.75;;;6.45;;
66012;SDS011;52783;50.502;8.190;2023-03-01T09:54:28;14.05;;;7.15;;
66012;SDS011;52783;50.502;8.190;2023-03-01T09:56:57;10.85;;;6.68;;
66012;SDS011;52783;50.502;8.190;2023-03-01T09:59:32;13.75;;;7.68;;
66012;SDS011;52783;50.502;8.190;2023-03-01T10:04:49;17.38;;;7.80;;
66012;SDS011;52783;50.502;8.190;2023-03-01T10:10:00;19.75;;;7.68;;
66012;SDS011;52783;50.502;8.190;2023-03-01T10:12:33;15.52;;;7.22;;
66012;SDS011;52783;50.502;8.190;2023-03-01T10:15:04;13.77;;;7.40;;
66012;SDS011;52783;50.502;8.190;2023-03-01T10:17:47;16.55;;;7.38;;
66012;SDS011;52783;50.502;8.190;2023-03-01T10:20:20;12.32;;;7.00;;
66012;SDS011;52783;50.502;8.190;2023-03-01T10:23:07;15.52;;;6.05;;
66012;SDS011;52783;50.502;8.190;2023-03-01T10:29:01;9.90;;;6.32;;
66012;SDS011;52783;50.502;8.190;2023-03-01T10:31:24;12.80;;;7.15;;
66012;SDS011;52783;50.502;8.190;2023-03-01T10:33:54;11.63;;;6.40;;
66012;SDS011;52783;50.502;8.190;2023-03-01T10:36:21;11.60;;;7.00;;
66012;SDS011;52783;50.502;8.190;2023-03-01T10:41:18;11.63;;;6.18;;
66012;SDS011;52783;50.502;8.190;2023-03-01T10:43:49;14.45;;;7.68;;
66012;SDS011;52783;50.502;8.190;2023-03-01T10:46:24;16.45;;;7.53;;
66012;SDS011;52783;50.502;8.190;2023-03-01T10:51:52;12.60;;;6.85;;
66012;SDS011;52783;50.502;8.190;2023-03-01T10:54:24;10.50;;;6.85;;
66012;SDS011;52783;50.502;8.190;2023-03-01T10:56:53;12.00;;;6.45;;
66012;SDS011;52783;50.502;8.190;2023-03-01T10:59:30;10.88;;;6.80;;
66012;SDS011;52783;50.502;8.190;2023-03-01T11:02:13;12.70;;;7.28;;
66012;SDS011;52783;50.502;8.190;2023-03-01T11:05:01;13.35;;;6.25;;
66012;SDS011;52783;50.502;8.190;2023-03-01T11:10:35;7.90;;;5.70;;
66012;SDS011;52783;50.502;8.190;2023-03-01T11:13:19;11.68;;;6.30;;
66012;SDS011;52783;50.502;8.190;2023-03-01T11:16:01;12.40;;;6.53;;
66012;SDS011;52783;50.502;8.190;2023-03-01T11:18:29;13.90;;;6.28;;
66012;SDS011;52783;50.502;8.190;2023-03-01T11:20:55;12.82;;;6.25;;
66012;SDS011;52783;50.502;8.190;2023-03-01T11:23:23;19.02;;;6.28;;
66012;SDS011;52783;50.502;8.190;2023-03-01T11:25:57;17.65;;;6.57;;
66012;SDS011;52783;50.502;8.190;2023-03-01T11:28:27;10.02;;;6.18;;
66012;SDS011;52783;50.502;8.190;2023-03-01T11:31:07;12.50;;;6.40;;
66012;SDS011;52783;50.502;8.190;2023-03-01T11:33:44;11.15;;;6.40;;
66012;SDS011;52783;50.502;8.190;2023-03-01T11:39:03;11.57;;;6.40;;
66012;SDS011;52783;50.502;8.190;2023-03-01T11:41:48;11.40;;;6.20;;
66012;SDS011;52783;50.502;8.190;2023-03-01T11:44:24;8.48;;;5.45;;
66012;SDS011;52783;50.502;8.190;2023-03-01T11:52:32;14.73;;;6.00;;
66012;SDS011;52783;50.502;8.190;2023-03-01T11:55:20;6.55;;;4.43;;
66012;SDS011;52783;50.502;8.190;2023-03-01T11:58:14;8.82;;;5.80;;
66012;SDS011;52783;50.502;8.190;2023-03-01T12:00:53;10.90;;;7.00;;
66012;SDS011;52783;50.502;8.190;2023-03-01T12:06:18;10.77;;;6.40;;
66012;SDS011;52783;50.502;8.190;2023-03-01T12:14:33;10.75;;;5.68;;
66012;SDS011;52783;50.502;8.190;2023-03-01T12:17:36;10.30;;;5.03;;
66012;SDS011;52783;50.502;8.190;2023-03-01T12:23:25;12.32;;;5.60;;
66012;SDS011;52783;50.502;8.190;2023-03-01T12:26:10;9.35;;;6.07;;
66012;SDS011;52783;50.502;8.190;2023-03-01T12:37:36;13.25;;;6.40;;
66012;SDS011;52783;50.502;8.190;2023-03-01T12:43:28;17.77;;;6.20;;
66012;SDS011;52783;50.502;8.190;2023-03-01T12:49:08;9.38;;;5.85;;
66012;SDS011;52783;50.502;8.190;2023-03-01T12:51:36;9.18;;;6.20;;
66012;SDS011;52783;50.502;8.190;2023-03-01T12:54:26;10.60;;;5.93;;
66012;SDS011;52783;50.502;8.190;2023-03-01T12:56:52;8.15;;;5.25;;
66012;SDS011;52783;50.502;8.190;2023-03-01T12:59:30;9.70;;;5.85;;
66012;SDS011;52783;50.502;8.190;2023-03-01T13:04:48;13.55;;;6.32;;
66012;SDS011;52783;50.502;8.190;2023-03-01T13:13:15;11.95;;;5.85;;
66012;SDS011;52783;50.502;8.190;2023-03-01T13:15:48;9.10;;;6.13;;
66012;SDS011;52783;50.502;8.190;2023-03-01T13:23:08;9.90;;;5.95;;
66012;SDS011;52783;50.502;8.190;2023-03-01T13:28:52;9.57;;;5.63;;
66012;SDS011;52783;50.502;8.190;2023-03-01T13:33:49;9.65;;;5.00;;
66012;SDS011;52783;50.502;8.190;2023-03-01T13:44:12;13.45;;;6.25;;
66012;SDS011;52783;50.502;8.190;2023-03-01T13:46:56;8.32;;;4.63;;
66012;SDS011;52783;50.502;8.190;2023-03-01T13:49:25;10.88;;;6.22;;
66012;SDS011;52783;50.502;8.190;2023-03-01T13:51:53;13.93;;;5.88;;
66012;SDS011;52783;50.502;8.190;2023-03-01T13:54:24;8.18;;;4.93;;
66012;SDS011;52783;50.502;8.190;2023-03-01T13:56:55;12.23;;;6.05;;
66012;SDS011;52783;50.502;8.190;2023-03-01T13:59:23;9.68;;;6.07;;
66012;SDS011;52783;50.502;8.190;2023-03-01T14:01:55;12.63;;;6.30;;
66012;SDS011;52783;50.502;8.190;2023-03-01T14:04:23;14.60;;;6.43;;
66012;SDS011;52783;50.502;8.190;2023-03-01T14:06:52;11.27;;;5.47;;
66012;SDS011;52783;50.502;8.190;2023-03-01T14:09:44;8.85;;;5.72;;
66012;SDS011;52783;50.502;8.190;2023-03-01T14:20:16;13.05;;;5.57;;
66012;SDS011;52783;50.502;8.190;2023-03-01T14:22:45;12.95;;;5.47;;
66012;SDS011;52783;50.502;8.190;2023-03-01T14:27:55;8.30;;;5.05;;
66012;SDS011;52783;50.502;8.190;2023-03-01T14:30:41;12.25;;;5.47;;
66012;SDS011;52783;50.502;8.190;2023-03-01T14:36:00;8.57;;;4.28;;
66012;SDS011;52783;50.502;8.190;2023-03-01T14:38:34;10.25;;;5.53;;
66012;SDS011;52783;50.502;8.190;2023-03-01T14:41:06;7.55;;;4.38;;
66012;SDS011;52783;50.502;8.190;2023-03-01T14:43:47;9.85;;;5.65;;
66012;SDS011;52783;50.502;8.190;2023-03-01T14:46:17;8.00;;;4.53;;
66012;SDS011;52783;50.502;8.190;2023-03-01T14:48:50;8.75;;;5.03;;
66012;SDS011;52783;50.502;8.190;2023-03-01T14:51:17;7.50;;;4.90;;
66012;SDS011;52783;50.502;8.190;2023-03-01T14:53:43;9.77;;;5.53;;
66012;SDS011;52783;50.502;8.190;2023-03-01T14:56:13;11.07;;;5.10;;
66012;SDS011;52783;50.502;8.190;2023-03-01T14:58:42;10.00;;;5.85;;
66012;SDS011;52783;50.502;8.190;2023-03-01T15:01:10;8.82;;;5.22;;
66012;SDS011;52783;50.502;8.190;2023-03-01T15:03:41;9.40;;;5.55;;
66012;SDS011;52783;50.502;8.190;2023-03-01T15:06:09;9.85;;;5.57;;
66012;SDS011;52783;50.502;8.190;2023-03-01T15:08:41;9.70;;;4.55;;
66012;SDS011;52783;50.502;8.190;2023-03-01T15:11:28;10.07;;;5.88;;
66012;SDS011;52783;50.502;8.190;2023-03-01T15:13:55;8.73;;;5.55;;
66012;SDS011;52783;50.502;8.190;2023-03-01T15:16:22;8.45;;;4.90;;
66012;SDS011;52783;50.502;8.190;2023-03-01T15:18:52;8.98;;;5.13;;
66012;SDS011;52783;50.502;8.190;2023-03-01T15:21:27;13.02;;;6.03;;
66012;SDS011;52783;50.502;8.190;2023-03-01T15:24:16;10.27;;;5.53;;
66012;SDS011;52783;50.502;8.190;2023-03-01T15:26:51;13.13;;;4.70;;
66012;SDS011;52783;50.502;8.190;2023-03-01T15:29:26;11.45;;;5.13;;
66012;SDS011;52783;50.502;8.190;2023-03-01T15:32:02;10.90;;;4.55;;
66012;SDS011;52783;50.502;8.190;2023-03-01T15:34:32;8.27;;;4.30;;
66012;SDS011;52783;50.502;8.190;2023-03-01T15:37:00;7.60;;;4.82;;
66012;SDS011;52783;50.502;8.190;2023-03-01T15:39:35;9.82;;;5.50;;
66012;SDS011;52783;50.502;8.190;2023-03-01T15:42:12;10.35;;;5.32;;
66012;SDS011;52783;50.502;8.190;2023-03-01T15:45:11;9.95;;;5.00;;
66012;SDS011;52783;50.502;8.190;2023-03-01T15:47:49;10.70;;;5.20;;
66012;SDS011;52783;50.502;8.190;2023-03-01T15:50:19;8.32;;;4.90;;
66012;SDS011;52783;50.502;8.190;2023-03-01T15:52:47;9.63;;;5.47;;
66012;SDS011;52783;50.502;8.190;2023-03-01T15:57:50;13.80;;;4.90;;
66012;SDS011;52783;50.502;8.190;2023-03-01T16:00:27;9.50;;;4.75;;
66012;SDS011;52783;50.502;8.190;2023-03-01T16:02:54;7.10;;;4.57;;
66012;SDS011;52783;50.502;8.190;2023-03-01T16:05:24;10.02;;;4.82;;
66012;SDS011;52783;50.502;8.190;2023-03-01T16:07:51;8.93;;;4.78;;
66012;SDS011;52783;50.502;8.190;2023-03-01T16:10:17;10.13;;;5.55;;
66012;SDS011;52783;50.502;8.190;2023-03-01T16:12:44;10.50;;;5.32;;
66012;SDS011;52783;50.502;8.190;2023-03-01T16:15:27;6.15;;;4.05;;
66012;SDS011;52783;50.502;8.190;2023-03-01T16:17:54;8.75;;;4.35;;
66012;SDS011;52783;50.502;8.190;2023-03-01T16:20:20;11.35;;;5.00;;
66012;SDS011;52783;50.502;8.190;2023-03-01T16:22:47;12.65;;;5.60;;
66012;SDS011;52783;50.502;8.190;2023-03-01T16:25:14;12.30;;;5.97;;
66012;SDS011;52783;50.502;8.190;2023-03-01T16:27:42;9.25;;;4.88;;
66012;SDS011;52783;50.502;8.190;2023-03-01T16:30:09;10.00;;;5.20;;
66012;SDS011;52783;50.502;8.190;2023-03-01T16:32:39;8.07;;;4.30;;
66012;SDS011;52783;50.502;8.190;2023-03-01T16:35:06;7.88;;;5.18;;
66012;SDS011;52783;50.502;8.190;2023-03-01T16:37:32;7.75;;;5.10;;
66012;SDS011;52783;50.502;8.190;2023-03-01T16:39:59;6.75;;;4.45;;